sensor_id;sensor_type;location;lat;lon;timestamp;P1;durP1;ratioP1;P2;durP2;ratioP2
68072;SDS011;54862;51.502;7.446;2022-10-16T08:46:17;5.00;;;2.30;;
68072;SDS011;54862;51.502;7.446;2022-10-16T08:48:52;5.43;;;1.92;;
68072;SDS011;54862;51.502;7.446;2022-10-16T08:51:23;7.05;;;2.20;;
68072;SDS011;54862;51.502;7.446;2022-10-16T08:56:19;5.60;;;2.20;;
68072;SDS011;54862;51.502;7.446;2022-10-16T08:58:45;3.92;;;2.10;;
68072;SDS011;54862;51.502;7.446;2022-10-16T09:01:13;5.00;;;2.00;;
68072;SDS011;54862;51.502;7.446;2022-10-16T09:08:44;4.15;;;1.80;;
68072;SDS011;54862;51.502;7.446;2022-10-16T09:11:19;4.43;;;1.85;;
68072;SDS011;54862;51.502;7.446;2022-10-16T09:19:04;3.35;;;1.70;;
68072;SDS011;54862;51.502;7.446;2022-10-16T09:21:38;5.65;;;1.80;;
68072;SDS011;54862;51.502;7.446;2022-10-16T09:24:13;7.35;;;1.75;;
68072;SDS011;54862;51.502;7.446;2022-10-16T09:26:39;4.80;;;1.85;;
68072;SDS011;54862;51.502;7.446;2022-10-16T09:29:05;3.13;;;1.50;;
68072;SDS011;54862;51.502;7.446;2022-10-16T09:31:31;3.97;;;1.52;;
68072;SDS011;54862;51.502;7.446;2022-10-16T09:33:58;2.70;;;1.50;;
68072;SDS011;54862;51.502;7.446;2022-10-16T09:36:25;2.53;;;1.60;;
68072;SDS011;54862;51.502;7.446;2022-10-16T09:39:05;4.20;;;1.63;;
68072;SDS011;54862;51.502;7.446;2022-10-16T09:41:33;4.70;;;1.63;;
68072;SDS011;54862;51.502;7.446;2022-10-16T09:44:00;3.40;;;1.52;;
68072;SDS011;54862;51.502;7.446;2022-10-16T09:48:57;4.63;;;1.70;;
68072;SDS011;54862;51.502;7.446;2022-10-16T09:51:33;7.32;;;1.52;;
68072;SDS011;54862;51.502;7.446;2022-10-16T09:56:36;3.42;;;1.50;;
68072;SDS011;54862;51.502;7.446;2022-10-16T09:59:14;2.13;;;1.42;;
68072;SDS011;54862;51.502;7.446;2022-10-16T10:01:41;3.53;;;1.40;;
68072;SDS011;54862;51.502;7.446;2022-10-16T10:04:08;3.42;;;1.55;;
68072;SDS011;54862;51.502;7.446;2022-10-16T10:06:56;2.40;;;1.50;;
68072;SDS011;54862;51.502;7.446;2022-10-16T10:11:57;2.97;;;1.50;;
68072;SDS011;54862;51.502;7.446;2022-10-16T10:14:24;3.25;;;1.48;;
68072;SDS011;54862;51.502;7.446;2022-10-16T10:16:52;2.72;;;1.60;;
68072;SDS011;54862;51.502;7.446;2022-10-16T10:19:20;4.60;;;1.60;;
68072;SDS011;54862;51.502;7.446;2022-10-16T10:21:46;3.13;;;1.40;;
68072;SDS011;54862;51.502;7.446;2022-10-16T10:24:13;3.83;;;1.60;;
68072;SDS011;54862;51.502;7.446;2022-10-16T10:26:41;3.42;;;1.60;;
68072;SDS011;54862;51.502;7.446;2022-10-16T10:31:45;2.33;;;1.30;;
68072;SDS011;54862;51.502;7.446;2022-10-16T10:34:26;4.05;;;1.40;;
68072;SDS011;54862;51.502;7.446;2022-10-16T10:36:59;3.22;;;1.50;;
68072;SDS011;54862;51.502;7.446;2022-10-16T10:39:28;5.28;;;1.52;;
68072;SDS011;54862;51.502;7.446;2022-10-16T10:45:05;5.00;;;1.65;;
68072;SDS011;54862;51.502;7.446;2022-10-16T10:47:46;5.60;;;1.95;;
68072;SDS011;54862;51.502;7.446;2022-10-16T10:50:22;3.78;;;1.50;;
68072;SDS011;54862;51.502;7.446;2022-10-16T11:00:21;2.15;;;1.40;;
68072;SDS011;54862;51.502;7.446;2022-10-16T11:03:05;1.67;;;1.13;;
68072;SDS011;54862;51.502;7.446;2022-10-16T11:05:54;3.85;;;1.50;;
68072;SDS011;54862;51.502;7.446;2022-10-16T11:08:26;1.67;;;1.40;;
68072;SDS011;54862;51.502;7.446;2022-10-16T11:10:56;2.38;;;1.30;;
68072;SDS011;54862;51.502;7.446;2022-10-16T11:16:14;4.72;;;1.27;;
68072;SDS011;54862;51.502;7.446;2022-10-16T11:18:44;2.57;;;1.40;;
68072;SDS011;54862;51.502;7.446;2022-10-16T11:21:12;3.85;;;1.38;;
68072;SDS011;54862;51.502;7.446;2022-10-16T11:23:45;4.88;;;1.50;;
68072;SDS011;54862;51.502;7.446;2022-10-16T11:26:34;3.88;;;1.42;;
68072;SDS011;54862;51.502;7.446;2022-10-16T11:29:01;3.03;;;1.38;;
68072;SDS011;54862;51.502;7.446;2022-10-16T11:31:34;2.90;;;1.50;;
68072;SDS011;54862;51.502;7.446;2022-10-16T11:36:45;3.08;;;1.30;;
68072;SDS011;54862;51.502;7.446;2022-10-16T11:39:28;4.63;;;1.42;;
68072;SDS011;54862;51.502;7.446;2022-10-16T11:49:34;2.45;;;1.30;;
68072;SDS011;54862;51.502;7.446;2022-10-16T11:52:13;3.42;;;1.33;;
68072;SDS011;54862;51.502;7.446;2022-10-16T11:54:52;5.28;;;1.48;;
68072;SDS011;54862;51.502;7.446;2022-10-16T11:57:33;2.38;;;1.27;;
68072;SDS011;54862;51.502;7.446;2022-10-16T12:00:04;5.45;;;1.38;;
68072;SDS011;54862;51.502;7.446;2022-10-16T12:02:53;2.97;;;1.45;;
68072;SDS011;54862;51.502;7.446;2022-10-16T12:05:29;4.10;;;1.50;;
68072;SDS011;54862;51.502;7.446;2022-10-16T12:10:30;2.40;;;1.40;;
68072;SDS011;54862;51.502;7.446;2022-10-16T12:13:03;4.43;;;1.50;;
68072;SDS011;54862;51.502;7.446;2022-10-16T12:15:30;3.60;;;1.30;;
68072;SDS011;54862;51.502;7.446;2022-10-16T12:17:57;5.20;;;2.15;;
68072;SDS011;54862;51.502;7.446;2022-10-16T12:20:30;2.90;;;1.20;;
68072;SDS011;54862;51.502;7.446;2022-10-16T12:23:06;3.40;;;1.20;;
68072;SDS011;54862;51.502;7.446;2022-10-16T12:28:05;2.92;;;1.25;;
68072;SDS011;54862;51.502;7.446;2022-10-16T12:30:33;1.75;;;1.20;;
68072;SDS011;54862;51.502;7.446;2022-10-16T12:33:01;4.05;;;1.30;;
68072;SDS011;54862;51.502;7.446;2022-10-16T12:35:32;3.95;;;1.40;;
68072;SDS011;54862;51.502;7.446;2022-10-16T12:38:06;3.10;;;1.38;;
68072;SDS011;54862;51.502;7.446;2022-10-16T12:40:33;2.75;;;1.42;;
68072;SDS011;54862;51.502;7.446;2022-10-16T12:43:10;1.70;;;1.35;;
68072;SDS011;54862;51.502;7.446;2022-10-16T12:45:36;4.72;;;1.40;;
68072;SDS011;54862;51.502;7.446;2022-10-16T12:48:04;2.20;;;1.40;;
68072;SDS011;54862;51.502;7.446;2022-10-16T12:50:34;5.57;;;1.70;;
68072;SDS011;54862;51.502;7.446;2022-10-16T12:53:01;2.50;;;1.20;;
68072;SDS011;54862;51.502;7.446;2022-10-16T12:55:31;3.42;;;1.40;;
68072;SDS011;54862;51.502;7.446;2022-10-16T12:58:10;4.97;;;1.50;;
68072;SDS011;54862;51.502;7.446;2022-10-16T13:00:44;3.60;;;1.48;;
68072;SDS011;54862;51.502;7.446;2022-10-16T13:06:01;3.80;;;1.38;;
68072;SDS011;54862;51.502;7.446;2022-10-16T13:08:41;3.55;;;1.30;;
68072;SDS011;54862;51.502;7.446;2022-10-16T13:11:59;4.78;;;1.30;;
68072;SDS011;54862;51.502;7.446;2022-10-16T13:16:40;6.13;;;1.40;;
68072;SDS011;54862;51.502;7.446;2022-10-16T13:22:00;3.85;;;1.30;;
68072;SDS011;54862;51.502;7.446;2022-10-16T13:24:39;4.28;;;1.27;;
68072;SDS011;54862;51.502;7.446;2022-10-16T13:29:53;3.13;;;1.40;;
68072;SDS011;54862;51.502;7.446;2022-10-16T13:32:20;2.63;;;1.35;;
68072;SDS011;54862;51.502;7.446;2022-10-16T13:34:47;6.13;;;1.40;;
68072;SDS011;54862;51.502;7.446;2022-10-16T13:37:20;2.63;;;1.17;;
68072;SDS011;54862;51.502;7.446;2022-10-16T13:39:46;3.38;;;1.25;;
68072;SDS011;54862;51.502;7.446;2022-10-16T13:44:46;2.40;;;1.20;;
68072;SDS011;54862;51.502;7.446;2022-10-16T13:47:17;3.30;;;1.35;;
68072;SDS011;54862;51.502;7.446;2022-10-16T13:49:43;2.42;;;1.30;;
68072;SDS011;54862;51.502;7.446;2022-10-16T13:52:17;3.45;;;1.27;;
68072;SDS011;54862;51.502;7.446;2022-10-16T13:54:43;3.85;;;1.50;;
68072;SDS011;54862;51.502;7.446;2022-10-16T13:57:12;1.13;;;1.10;;
68072;SDS011;54862;51.502;7.446;2022-10-16T13:59:38;4.25;;;1.30;;
68072;SDS011;54862;51.502;7.446;2022-10-16T14:02:26;2.42;;;1.27;;
68072;SDS011;54862;51.502;7.446;2022-10-16T14:04:51;1.20;;;1.20;;
68072;SDS011;54862;51.502;7.446;2022-10-16T14:07:25;4.32;;;1.60;;
68072;SDS011;54862;51.502;7.446;2022-10-16T14:09:53;3.78;;;1.60;;
68072;SDS011;54862;51.502;7.446;2022-10-16T14:12:19;3.38;;;1.60;;
68072;SDS011;54862;51.502;7.446;2022-10-16T14:14:46;3.40;;;1.60;;
68072;SDS011;54862;51.502;7.446;2022-10-16T14:17:14;6.47;;;2.20;;
68072;SDS011;54862;51.502;7.446;2022-10-16T14:19:40;3.45;;;1.85;;
68072;SDS011;54862;51.502;7.446;2022-10-16T14:22:18;3.60;;;1.40;;
68072;SDS011;54862;51.502;7.446;2022-10-16T14:24:46;1.42;;;1.10;;
68072;SDS011;54862;51.502;7.446;2022-10-16T14:27:32;3.50;;;1.50;;
68072;SDS011;54862;51.502;7.446;2022-10-16T14:32:33;2.70;;;1.38;;
68072;SDS011;54862;51.502;7.446;2022-10-16T14:35:00;1.30;;;1.20;;
68072;SDS011;54862;51.502;7.446;2022-10-16T14:37:27;2.20;;;1.30;;
68072;SDS011;54862;51.502;7.446;2022-10-16T14:39:54;3.55;;;1.52;;
68072;SDS011;54862;51.502;7.446;2022-10-16T14:42:21;4.30;;;1.30;;
68072;SDS011;54862;51.502;7.446;2022-10-16T14:44:54;1.70;;;1.38;;
68072;SDS011;54862;51.502;7.446;2022-10-16T14:47:22;4.68;;;1.40;;
68072;SDS011;54862;51.502;7.446;2022-10-16T14:49:51;3.38;;;1.48;;
68072;SDS011;54862;51.502;7.446;2022-10-16T14:52:18;3.13;;;1.40;;
68072;SDS011;54862;51.502;7.446;2022-10-16T14:54:48;3.05;;;1.50;;
68072;SDS011;54862;51.502;7.446;2022-10-16T14:57:18;1.60;;;1.30;;
68072;SDS011;54862;51.502;7.446;2022-10-16T14:59:45;5.60;;;1.50;;
68072;SDS011;54862;51.502;7.446;2022-10-16T15:04:47;3.60;;;1.45;;
68072;SDS011;54862;51.502;7.446;2022-10-16T15:07:13;2.10;;;1.30;;
68072;SDS011;54862;51.502;7.446;2022-10-16T15:09:39;1.52;;;1.25;;
68072;SDS011;54862;51.502;7.446;2022-10-16T15:12:05;3.13;;;1.60;;
68072;SDS011;54862;51.502;7.446;2022-10-16T15:14:31;3.17;;;1.50;;
68072;SDS011;54862;51.502;7.446;2022-10-16T15:16:57;1.52;;;1.40;;
68072;SDS011;54862;51.502;7.446;2022-10-16T15:19:23;2.15;;;1.40;;
68072;SDS011;54862;51.502;7.446;2022-10-16T15:21:49;4.80;;;1.50;;
68072;SDS011;54862;51.502;7.446;2022-10-16T15:24:15;2.75;;;1.40;;
68072;SDS011;54862;51.502;7.446;2022-10-16T15:26:41;2.28;;;1.50;;
68072;SDS011;54862;51.502;7.446;2022-10-16T15:29:07;4.22;;;1.60;;
68072;SDS011;54862;51.502;7.446;2022-10-16T15:31:34;3.78;;;1.60;;
68072;SDS011;54862;51.502;7.446;2022-10-16T15:34:00;2.50;;;1.60;;
68072;SDS011;54862;51.502;7.446;2022-10-16T15:36:34;3.30;;;1.60;;
68072;SDS011;54862;51.502;7.446;2022-10-16T15:39:22;5.80;;;1.70;;
68072;SDS011;54862;51.502;7.446;2022-10-16T15:41:47;4.85;;;1.70;;
68072;SDS011;54862;51.502;7.446;2022-10-16T15:44:16;2.22;;;1.50;;
68072;SDS011;54862;51.502;7.446;2022-10-16T15:46:42;6.35;;;1.63;;
68072;SDS011;54862;51.502;7.446;2022-10-16T15:49:08;5.88;;;1.90;;
68072;SDS011;54862;51.502;7.446;2022-10-16T15:51:37;5.63;;;1.67;;
68072;SDS011;54862;51.502;7.446;2022-10-16T15:54:03;3.60;;;1.50;;
68072;SDS011;54862;51.502;7.446;2022-10-16T15:56:29;4.15;;;1.80;;
68072;SDS011;54862;51.502;7.446;2022-10-16T15:58:58;3.20;;;1.80;;
68072;SDS011;54862;51.502;7.446;2022-10-16T16:01:24;4.15;;;1.60;;
68072;SDS011;54862;51.502;7.446;2022-10-16T16:03:53;2.83;;;1.58;;
68072;SDS011;54862;51.502;7.446;2022-10-16T16:06:19;4.03;;;1.67;;
68072;SDS011;54862;51.502;7.446;2022-10-16T16:08:45;3.75;;;1.80;;
68072;SDS011;54862;51.502;7.446;2022-10-16T16:11:12;5.53;;;2.22;;
68072;SDS011;54862;51.502;7.446;2022-10-16T16:13:39;5.22;;;2.53;;
68072;SDS011;54862;51.502;7.446;2022-10-16T16:16:10;6.22;;;3.10;;
68072;SDS011;54862;51.502;7.446;2022-10-16T16:18:36;5.88;;;3.45;;
68072;SDS011;54862;51.502;7.446;2022-10-16T16:21:03;8.23;;;3.30;;
68072;SDS011;54862;51.502;7.446;2022-10-16T16:23:29;6.20;;;2.58;;
68072;SDS011;54862;51.502;7.446;2022-10-16T16:28:30;3.88;;;2.22;;
68072;SDS011;54862;51.502;7.446;2022-10-16T16:30:56;6.10;;;2.20;;
68072;SDS011;54862;51.502;7.446;2022-10-16T16:33:22;4.50;;;2.28;;
68072;SDS011;54862;51.502;7.446;2022-10-16T16:35:49;6.97;;;2.20;;
68072;SDS011;54862;51.502;7.446;2022-10-16T16:38:15;5.22;;;2.08;;
68072;SDS011;54862;51.502;7.446;2022-10-16T16:40:41;4.22;;;2.10;;
68072;SDS011;54862;51.502;7.446;2022-10-16T16:43:06;5.85;;;2.40;;
68072;SDS011;54862;51.502;7.446;2022-10-16T16:45:35;6.90;;;2.40;;
68072;SDS011;54862;51.502;7.446;2022-10-16T16:48:01;4.07;;;2.05;;
68072;SDS011;54862;51.502;7.446;2022-10-16T16:50:27;7.95;;;2.35;;
68072;SDS011;54862;51.502;7.446;2022-10-16T16:52:53;4.43;;;2.40;;
68072;SDS011;54862;51.502;7.446;2022-10-16T16:55:19;7.53;;;2.42;;
68072;SDS011;54862;51.502;7.446;2022-10-16T16:57:47;6.35;;;2.53;;
68072;SDS011;54862;51.502;7.446;2022-10-16T17:00:13;5.82;;;2.10;;
68072;SDS011;54862;51.502;7.446;2022-10-16T17:02:39;5.75;;;2.30;;
68072;SDS011;54862;51.502;7.446;2022-10-16T17:05:08;6.90;;;2.30;;
68072;SDS011;54862;51.502;7.446;2022-10-16T17:07:34;6.05;;;2.40;;
68072;SDS011;54862;51.502;7.446;2022-10-16T17:10:00;6.45;;;2.58;;
68072;SDS011;54862;51.502;7.446;2022-10-16T17:12:28;7.75;;;2.45;;
68072;SDS011;54862;51.502;7.446;2022-10-16T17:14:54;4.60;;;2.10;;
68072;SDS011;54862;51.502;7.446;2022-10-16T17:17:20;7.70;;;2.28;;
68072;SDS011;54862;51.502;7.446;2022-10-16T17:19:45;4.93;;;2.00;;
68072;SDS011;54862;51.502;7.446;2022-10-16T17:22:11;6.25;;;2.30;;
68072;SDS011;54862;51.502;7.446;2022-10-16T17:24:37;5.30;;;2.22;;
68072;SDS011;54862;51.502;7.446;2022-10-16T17:27:03;6.70;;;2.22;;
68072;SDS011;54862;51.502;7.446;2022-10-16T17:29:29;4.13;;;1.92;;
68072;SDS011;54862;51.502;7.446;2022-10-16T17:31:55;3.70;;;2.10;;
68072;SDS011;54862;51.502;7.446;2022-10-16T17:34:23;4.80;;;2.15;;
68072;SDS011;54862;51.502;7.446;2022-10-16T17:36:49;4.97;;;2.22;;
68072;SDS011;54862;51.502;7.446;2022-10-16T17:39:15;7.03;;;2.33;;
68072;SDS011;54862;51.502;7.446;2022-10-16T17:41:42;4.63;;;2.10;;
68072;SDS011;54862;51.502;7.446;2022-10-16T17:44:09;7.03;;;2.25;;
68072;SDS011;54862;51.502;7.446;2022-10-16T17:46:43;4.60;;;2.10;;
68072;SDS011;54862;51.502;7.446;2022-10-16T17:49:09;5.55;;;2.40;;
68072;SDS011;54862;51.502;7.446;2022-10-16T17:51:35;10.48;;;2.83;;
68072;SDS011;54862;51.502;7.446;2022-10-16T17:54:01;8.63;;;2.70;;
68072;SDS011;54862;51.502;7.446;2022-10-16T17:56:28;6.82;;;2.42;;
68072;SDS011;54862;51.502;7.446;2022-10-16T17:58:55;5.32;;;2.42;;
68072;SDS011;54862;51.502;7.446;2022-10-16T18:01:28;7.00;;;2.75;;
68072;SDS011;54862;51.502;7.446;2022-10-16T18:03:57;8.68;;;2.70;;
68072;SDS011;54862;51.502;7.446;2022-10-16T18:06:23;6.53;;;2.50;;
68072;SDS011;54862;51.502;7.446;2022-10-16T18:08:50;6.53;;;2.80;;
68072;SDS011;54862;51.502;7.446;2022-10-16T18:11:16;6.05;;;2.72;;
68072;SDS011;54862;51.502;7.446;2022-10-16T18:13:42;6.72;;;2.67;;
68072;SDS011;54862;51.502;7.446;2022-10-16T18:16:10;7.40;;;2.60;;
68072;SDS011;54862;51.502;7.446;2022-10-16T18:18:37;5.20;;;2.25;;
68072;SDS011;54862;51.502;7.446;2022-10-16T18:21:04;4.97;;;2.38;;
68072;SDS011;54862;51.502;7.446;2022-10-16T18:23:32;4.45;;;2.22;;
68072;SDS011;54862;51.502;7.446;2022-10-16T18:25:58;3.55;;;2.03;;
68072;SDS011;54862;51.502;7.446;2022-10-16T18:28:24;4.00;;;2.05;;
68072;SDS011;54862;51.502;7.446;2022-10-16T18:31:00;7.30;;;2.30;;
68072;SDS011;54862;51.502;7.446;2022-10-16T18:33:27;5.60;;;2.10;;
68072;SDS011;54862;51.502;7.446;2022-10-16T18:35:55;5.53;;;2.45;;
68072;SDS011;54862;51.502;7.446;2022-10-16T18:38:21;4.63;;;2.28;;
68072;SDS011;54862;51.502;7.446;2022-10-16T18:40:47;5.95;;;2.35;;
68072;SDS011;54862;51.502;7.446;2022-10-16T18:43:13;5.35;;;2.47;;
68072;SDS011;54862;51.502;7.446;2022-10-16T18:45:39;3.85;;;2.08;;
68072;SDS011;54862;51.502;7.446;2022-10-16T18:48:05;5.07;;;2.40;;
68072;SDS011;54862;51.502;7.446;2022-10-16T18:50:31;5.10;;;2.35;;
68072;SDS011;54862;51.502;7.446;2022-10-16T18:52:57;8.27;;;2.72;;
68072;SDS011;54862;51.502;7.446;2022-10-16T18:55:23;4.75;;;2.30;;
68072;SDS011;54862;51.502;7.446;2022-10-16T18:57:49;5.43;;;2.63;;
68072;SDS011;54862;51.502;7.446;2022-10-16T19:00:15;6.47;;;2.65;;
68072;SDS011;54862;51.502;7.446;2022-10-16T19:02:41;6.00;;;2.47;;
68072;SDS011;54862;51.502;7.446;2022-10-16T19:05:07;4.82;;;2.47;;
68072;SDS011;54862;51.502;7.446;2022-10-16T19:07:34;5.28;;;2.53;;
68072;SDS011;54862;51.502;7.446;2022-10-16T19:10:00;6.72;;;2.90;;
68072;SDS011;54862;51.502;7.446;2022-10-16T19:12:26;5.40;;;2.47;;
68072;SDS011;54862;51.502;7.446;2022-10-16T19:14:52;6.47;;;2.92;;
68072;SDS011;54862;51.502;7.446;2022-10-16T19:17:18;5.50;;;2.70;;
68072;SDS011;54862;51.502;7.446;2022-10-16T19:19:44;7.68;;;2.75;;
68072;SDS011;54862;51.502;7.446;2022-10-16T19:22:09;4.90;;;2.63;;
68072;SDS011;54862;51.502;7.446;2022-10-16T19:24:38;5.05;;;2.58;;
68072;SDS011;54862;51.502;7.446;2022-10-16T19:27:04;7.25;;;2.83;;
68072;SDS011;54862;51.502;7.446;2022-10-16T19:29:30;8.55;;;3.22;;
68072;SDS011;54862;51.502;7.446;2022-10-16T19:31:57;6.53;;;3.13;;
68072;SDS011;54862;51.502;7.446;2022-10-16T19:34:23;9.10;;;2.85;;
68072;SDS011;54862;51.502;7.446;2022-10-16T19:36:49;10.23;;;3.30;;
68072;SDS011;54862;51.502;7.446;2022-10-16T19:39:17;8.85;;;3.08;;
68072;SDS011;54862;51.502;7.446;2022-10-16T19:41:43;8.55;;;3.22;;
68072;SDS011;54862;51.502;7.446;2022-10-16T19:44:11;10.90;;;3.25;;
68072;SDS011;54862;51.502;7.446;2022-10-16T19:46:38;11.40;;;3.33;;
68072;SDS011;54862;51.502;7.446;2022-10-16T19:49:05;6.70;;;2.92;;
68072;SDS011;54862;51.502;7.446;2022-10-16T19:51:32;9.35;;;3.20;;
68072;SDS011;54862;51.502;7.446;2022-10-16T19:53:59;6.32;;;3.10;;
68072;SDS011;54862;51.502;7.446;2022-10-16T19:56:26;7.82;;;3.08;;
68072;SDS011;54862;51.502;7.446;2022-10-16T19:58:53;7.03;;;3.03;;
68072;SDS011;54862;51.502;7.446;2022-10-16T20:01:19;5.82;;;3.10;;
68072;SDS011;54862;51.502;7.446;2022-10-16T20:03:46;7.15;;;3.50;;
68072;SDS011;54862;51.502;7.446;2022-10-16T20:06:12;8.50;;;3.58;;
68072;SDS011;54862;51.502;7.446;2022-10-16T20:08:39;8.40;;;3.47;;
68072;SDS011;54862;51.502;7.446;2022-10-16T20:11:05;11.27;;;3.40;;
68072;SDS011;54862;51.502;7.446;2022-10-16T20:13:34;9.57;;;3.35;;
68072;SDS011;54862;51.502;7.446;2022-10-16T20:16:01;8.77;;;3.88;;
68072;SDS011;54862;51.502;7.446;2022-10-16T20:18:27;8.18;;;3.80;;
68072;SDS011;54862;51.502;7.446;2022-10-16T20:20:53;9.07;;;4.07;;
68072;SDS011;54862;51.502;7.446;2022-10-16T20:23:19;11.25;;;3.80;;
68072;SDS011;54862;51.502;7.446;2022-10-16T20:25:47;8.07;;;3.42;;
68072;SDS011;54862;51.502;7.446;2022-10-16T20:28:14;7.47;;;3.42;;
68072;SDS011;54862;51.502;7.446;2022-10-16T20:30:43;7.53;;;3.90;;
68072;SDS011;54862;51.502;7.446;2022-10-16T20:33:09;8.43;;;3.85;;
68072;SDS011;54862;51.502;7.446;2022-10-16T20:35:39;8.57;;;3.95;;
68072;SDS011;54862;51.502;7.446;2022-10-16T20:38:05;7.65;;;3.75;;
68072;SDS011;54862;51.502;7.446;2022-10-16T20:40:35;8.25;;;3.85;;
68072;SDS011;54862;51.502;7.446;2022-10-16T20:43:01;9.88;;;4.38;;
68072;SDS011;54862;51.502;7.446;2022-10-16T20:45:27;9.75;;;3.83;;
68072;SDS011;54862;51.502;7.446;2022-10-16T20:47:53;7.50;;;3.55;;
68072;SDS011;54862;51.502;7.446;2022-10-16T20:50:19;8.55;;;4.03;;
68072;SDS011;54862;51.502;7.446;2022-10-16T20:52:44;8.30;;;3.97;;
68072;SDS011;54862;51.502;7.446;2022-10-16T20:55:11;9.15;;;4.05;;
68072;SDS011;54862;51.502;7.446;2022-10-16T20:57:37;8.25;;;4.28;;
68072;SDS011;54862;51.502;7.446;2022-10-16T21:00:03;8.73;;;4.10;;
68072;SDS011;54862;51.502;7.446;2022-10-16T21:02:29;10.13;;;4.25;;
68072;SDS011;54862;51.502;7.446;2022-10-16T21:04:56;8.98;;;4.05;;
68072;SDS011;54862;51.502;7.446;2022-10-16T21:07:22;8.98;;;4.10;;
68072;SDS011;54862;51.502;7.446;2022-10-16T21:09:48;9.02;;;4.07;;
68072;SDS011;54862;51.502;7.446;2022-10-16T21:12:14;8.07;;;4.05;;
68072;SDS011;54862;51.502;7.446;2022-10-16T21:14:39;9.68;;;3.95;;
68072;SDS011;54862;51.502;7.446;2022-10-16T21:17:05;9.20;;;4.78;;
68072;SDS011;54862;51.502;7.446;2022-10-16T21:19:32;10.95;;;5.13;;
68072;SDS011;54862;51.502;7.446;2022-10-16T21:21:58;10.20;;;5.22;;
68072;SDS011;54862;51.502;7.446;2022-10-16T21:24:24;9.73;;;4.82;;
68072;SDS011;54862;51.502;7.446;2022-10-16T21:26:50;12.77;;;5.82;;
68072;SDS011;54862;51.502;7.446;2022-10-16T21:29:16;11.00;;;5.30;;
68072;SDS011;54862;51.502;7.446;2022-10-16T21:31:43;11.95;;;5.97;;
68072;SDS011;54862;51.502;7.446;2022-10-16T21:34:09;11.80;;;6.07;;
68072;SDS011;54862;51.502;7.446;2022-10-16T21:36:35;10.80;;;6.03;;
68072;SDS011;54862;51.502;7.446;2022-10-16T21:41:28;11.02;;;5.72;;
68072;SDS011;54862;51.502;7.446;2022-10-16T21:43:54;11.85;;;5.40;;
68072;SDS011;54862;51.502;7.446;2022-10-16T21:46:21;14.32;;;6.05;;
68072;SDS011;54862;51.502;7.446;2022-10-16T21:48:47;10.05;;;5.50;;
68072;SDS011;54862;51.502;7.446;2022-10-16T21:51:13;10.10;;;5.00;;
68072;SDS011;54862;51.502;7.446;2022-10-16T21:53:39;13.45;;;5.38;;
68072;SDS011;54862;51.502;7.446;2022-10-16T21:56:16;9.55;;;4.97;;
68072;SDS011;54862;51.502;7.446;2022-10-16T21:58:42;9.27;;;5.03;;
68072;SDS011;54862;51.502;7.446;2022-10-16T22:01:09;9.65;;;5.10;;
68072;SDS011;54862;51.502;7.446;2022-10-16T22:03:36;8.65;;;5.00;;
68072;SDS011;54862;51.502;7.446;2022-10-16T22:06:03;9.25;;;5.05;;
68072;SDS011;54862;51.502;7.446;2022-10-16T22:08:29;9.68;;;4.63;;
68072;SDS011;54862;51.502;7.446;2022-10-16T22:11:07;10.73;;;4.95;;
68072;SDS011;54862;51.502;7.446;2022-10-16T22:13:33;11.35;;;4.90;;
68072;SDS011;54862;51.502;7.446;2022-10-16T22:15:59;8.60;;;4.95;;
68072;SDS011;54862;51.502;7.446;2022-10-16T22:18:25;9.23;;;4.50;;
68072;SDS011;54862;51.502;7.446;2022-10-16T22:20:51;8.63;;;4.55;;
68072;SDS011;54862;51.502;7.446;2022-10-16T22:23:18;8.60;;;4.32;;
68072;SDS011;54862;51.502;7.446;2022-10-16T22:25:44;11.35;;;4.90;;
68072;SDS011;54862;51.502;7.446;2022-10-16T22:28:10;9.82;;;4.85;;
68072;SDS011;54862;51.502;7.446;2022-10-16T22:30:36;10.95;;;4.80;;
68072;SDS011;54862;51.502;7.446;2022-10-16T22:33:03;10.32;;;4.68;;
68072;SDS011;54862;51.502;7.446;2022-10-16T22:35:29;8.05;;;4.28;;
68072;SDS011;54862;51.502;7.446;2022-10-16T22:37:55;8.52;;;4.60;;
68072;SDS011;54862;51.502;7.446;2022-10-16T22:40:21;9.55;;;4.22;;
68072;SDS011;54862;51.502;7.446;2022-10-16T22:42:47;7.75;;;4.35;;
68072;SDS011;54862;51.502;7.446;2022-10-16T22:45:13;7.57;;;4.05;;
68072;SDS011;54862;51.502;7.446;2022-10-16T22:47:39;8.30;;;4.25;;
68072;SDS011;54862;51.502;7.446;2022-10-16T22:50:05;8.60;;;4.28;;
68072;SDS011;54862;51.502;7.446;2022-10-16T22:52:31;8.07;;;4.07;;
68072;SDS011;54862;51.502;7.446;2022-10-16T22:54:57;9.38;;;4.07;;
68072;SDS011;54862;51.502;7.446;2022-10-16T22:57:23;8.60;;;4.80;;
68072;SDS011;54862;51.502;7.446;2022-10-16T22:59:49;8.18;;;4.13;;
68072;SDS011;54862;51.502;7.446;2022-10-16T23:02:15;10.55;;;4.65;;
68072;SDS011;54862;51.502;7.446;2022-10-16T23:04:41;9.23;;;4.95;;
68072;SDS011;54862;51.502;7.446;2022-10-16T23:07:07;9.55;;;5.18;;
68072;SDS011;54862;51.502;7.446;2022-10-16T23:09:33;7.07;;;4.22;;
68072;SDS011;54862;51.502;7.446;2022-10-16T23:11:59;8.98;;;4.65;;
68072;SDS011;54862;51.502;7.446;2022-10-16T23:14:25;7.38;;;4.60;;
68072;SDS011;54862;51.502;7.446;2022-10-16T23:16:51;8.02;;;4.57;;
68072;SDS011;54862;51.502;7.446;2022-10-16T23:19:17;7.30;;;4.30;;
68072;SDS011;54862;51.502;7.446;2022-10-16T23:21:43;8.88;;;4.90;;
68072;SDS011;54862;51.502;7.446;2022-10-16T23:24:10;8.98;;;4.45;;
68072;SDS011;54862;51.502;7.446;2022-10-16T23:26:36;8.05;;;4.53;;
68072;SDS011;54862;51.502;7.446;2022-10-16T23:29:02;7.25;;;4.15;;
68072;SDS011;54862;51.502;7.446;2022-10-16T23:31:29;10.25;;;4.57;;
68072;SDS011;54862;51.502;7.446;2022-10-16T23:33:56;8.52;;;4.15;;
68072;SDS011;54862;51.502;7.446;2022-10-16T23:36:23;10.00;;;4.95;;
68072;SDS011;54862;51.502;7.446;2022-10-16T23:38:52;8.40;;;4.70;;
68072;SDS011;54862;51.502;7.446;2022-10-16T23:41:19;9.38;;;4.80;;
68072;SDS011;54862;51.502;7.446;2022-10-16T23:43:46;8.75;;;4.35;;
68072;SDS011;54862;51.502;7.446;2022-10-16T23:46:17;9.10;;;4.93;;
68072;SDS011;54862;51.502;7.446;2022-10-16T23:48:43;8.15;;;4.45;;
68072;SDS011;54862;51.502;7.446;2022-10-16T23:51:11;8.68;;;4.78;;
68072;SDS011;54862;51.502;7.446;2022-10-16T23:53:37;10.23;;;4.53;;
68072;SDS011;54862;51.502;7.446;2022-10-16T23:56:05;9.38;;;4.75;;
68072;SDS011;54862;51.502;7.446;2022-10-16T23:58:32;9.82;;;5.15;;
